createdAt,value
2022-12-07T00:01:16.066Z,3.58
2022-12-07T00:03:43.550Z,4.18
2022-12-07T00:06:11.374Z,3.03
2022-12-07T00:08:38.232Z,3.60
2022-12-07T00:11:09.387Z,3.42
2022-12-07T00:13:36.287Z,3.20
2022-12-07T00:16:10.942Z,2.90
2022-12-07T00:18:37.733Z,3.58
2022-12-07T00:21:10.403Z,3.20
2022-12-07T00:23:37.197Z,4.65
2022-12-07T00:26:08.336Z,4.55
2022-12-07T00:28:35.032Z,4.53
2022-12-07T00:31:06.253Z,4.03
2022-12-07T00:33:34.101Z,3.75
2022-12-07T00:36:00.889Z,3.53
2022-12-07T00:38:29.402Z,4.15
2022-12-07T00:41:01.028Z,3.63
2022-12-07T00:43:27.794Z,3.80
2022-12-07T00:45:54.970Z,5.13
2022-12-07T00:48:21.831Z,4.80
2022-12-07T00:50:48.899Z,4.75
2022-12-07T00:53:15.742Z,4.65
2022-12-07T00:55:42.705Z,4.65
2022-12-07T00:58:09.573Z,4.00
2022-12-07T01:00:37.121Z,4.13
2022-12-07T01:03:05.167Z,4.40
2022-12-07T01:05:31.886Z,4.70
2022-12-07T01:07:58.583Z,4.22
2022-12-07T01:10:25.377Z,4.10
2022-12-07T01:12:52.070Z,3.60
2022-12-07T01:15:18.843Z,3.08
2022-12-07T01:17:45.506Z,2.95
2022-12-07T01:20:12.861Z,3.25
2022-12-07T01:22:40.595Z,2.90
2022-12-07T01:25:08.257Z,2.80
2022-12-07T01:27:35.607Z,3.50
2022-12-07T01:30:03.065Z,4.43
2022-12-07T01:32:30.109Z,3.03
2022-12-07T01:34:56.945Z,3.47
2022-12-07T01:37:23.622Z,2.72
2022-12-07T01:39:51.079Z,3.28
2022-12-07T01:42:17.750Z,4.38
2022-12-07T01:45:18.310Z,4.18
2022-12-07T01:47:50.664Z,5.05
2022-12-07T01:50:17.368Z,3.67
2022-12-07T01:52:44.196Z,3.95
2022-12-07T01:55:13.898Z,3.88
2022-12-07T01:57:42.385Z,3.00
2022-12-07T02:00:10.038Z,3.78
2022-12-07T02:02:40.717Z,3.13
2022-12-07T02:05:07.986Z,2.65
2022-12-07T02:07:35.914Z,2.10
2022-12-07T02:10:22.764Z,2.40
2022-12-07T02:13:00.279Z,1.70
2022-12-07T02:15:35.344Z,1.80
2022-12-07T02:18:08.075Z,1.33
2022-12-07T02:20:38.651Z,2.13
2022-12-07T02:23:17.370Z,2.20
2022-12-07T02:26:05.309Z,2.13
2022-12-07T02:28:48.391Z,2.95
2022-12-07T02:31:19.191Z,4.32
2022-12-07T02:33:49.336Z,3.22
2022-12-07T02:36:22.773Z,3.10
2022-12-07T02:38:52.124Z,3.35
2022-12-07T02:41:46.356Z,3.17
2022-12-07T02:44:14.868Z,3.38
2022-12-07T02:46:47.704Z,3.05
2022-12-07T02:49:14.591Z,2.42
2022-12-07T02:51:43.760Z,2.78
2022-12-07T02:54:18.456Z,3.03
2022-12-07T02:56:45.095Z,2.70
2022-12-07T02:59:16.137Z,4.40
2022-12-07T03:01:50.902Z,4.60
2022-12-07T03:04:54.461Z,4.80
2022-12-07T03:07:30.306Z,4.78
2022-12-07T03:10:21.309Z,4.03
2022-12-07T03:13:03.008Z,3.85
2022-12-07T03:15:38.560Z,4.07
2022-12-07T03:18:05.327Z,4.90
2022-12-07T03:20:32.249Z,3.97
2022-12-07T03:22:58.882Z,4.32
2022-12-07T03:25:25.802Z,4.45
2022-12-07T03:27:57.027Z,4.15
2022-12-07T03:30:25.529Z,3.65
2022-12-07T03:32:59.566Z,4.07
2022-12-07T03:35:34.532Z,3.67
2022-12-07T03:38:04.798Z,3.63
2022-12-07T03:40:41.147Z,3.50
2022-12-07T03:43:07.858Z,3.50
2022-12-07T03:45:45.088Z,4.35
2022-12-07T03:48:22.223Z,4.45
2022-12-07T03:50:55.055Z,4.60
2022-12-07T03:53:42.290Z,4.82
2022-12-07T03:56:09.274Z,3.67
2022-12-07T03:58:35.929Z,3.70
2022-12-07T04:01:04.062Z,3.92
2022-12-07T04:03:30.719Z,4.15
2022-12-07T04:05:57.418Z,3.50
2022-12-07T04:08:24.171Z,3.65
2022-12-07T04:10:51.035Z,4.38
2022-12-07T04:13:17.735Z,3.20
2022-12-07T04:15:44.478Z,3.15
2022-12-07T04:18:11.181Z,3.00
2022-12-07T04:20:37.938Z,3.40
2022-12-07T04:23:04.609Z,3.40
2022-12-07T04:25:31.249Z,4.43
2022-12-07T04:27:57.966Z,3.53
2022-12-07T04:30:24.697Z,4.53
2022-12-07T04:32:51.508Z,4.80
2022-12-07T04:35:18.168Z,5.80
2022-12-07T04:37:44.849Z,6.13
2022-12-07T04:40:12.231Z,5.00
2022-12-07T04:42:39.214Z,4.60
2022-12-07T04:45:06.501Z,4.72
2022-12-07T04:47:33.205Z,4.18
2022-12-07T04:50:00.234Z,3.83
2022-12-07T04:52:27.190Z,3.28
2022-12-07T04:54:53.857Z,3.00
2022-12-07T04:57:20.622Z,3.42
2022-12-07T04:59:47.360Z,3.65
2022-12-07T05:02:14.097Z,3.60
2022-12-07T05:04:40.797Z,3.28
2022-12-07T05:07:07.457Z,3.05
2022-12-07T05:09:34.146Z,2.97
2022-12-07T05:12:00.805Z,2.90
2022-12-07T05:14:27.518Z,2.28
2022-12-07T05:16:54.802Z,2.40
2022-12-07T05:19:21.574Z,2.75
2022-12-07T05:21:48.331Z,1.98
2022-12-07T05:24:15.698Z,1.77
2022-12-07T05:26:42.392Z,2.53
2022-12-07T05:29:09.033Z,1.90
2022-12-07T05:31:35.787Z,1.58
2022-12-07T05:34:02.811Z,1.80
2022-12-07T05:36:29.788Z,1.77
2022-12-07T05:38:56.995Z,2.75
2022-12-07T05:41:41.990Z,2.47
2022-12-07T05:44:08.762Z,2.95
2022-12-07T05:46:35.503Z,3.25
2022-12-07T05:49:02.596Z,2.85
2022-12-07T05:51:29.277Z,3.35
2022-12-07T05:53:56.065Z,3.00
2022-12-07T05:56:22.820Z,3.08
2022-12-07T05:59:07.960Z,3.10
2022-12-07T06:01:34.622Z,3.10
2022-12-07T06:04:01.253Z,3.40
2022-12-07T06:06:27.959Z,3.83
2022-12-07T06:08:54.725Z,3.90
2022-12-07T06:11:40.142Z,3.50
2022-12-07T06:14:06.769Z,3.72
2022-12-07T06:16:33.452Z,3.53
2022-12-07T06:19:00.219Z,3.65
2022-12-07T06:21:27.672Z,3.47
2022-12-07T06:23:54.392Z,4.07
2022-12-07T06:26:21.178Z,3.35
2022-12-07T06:28:47.932Z,3.72
2022-12-07T06:31:14.615Z,3.72
2022-12-07T06:33:41.777Z,3.65
2022-12-07T06:36:08.976Z,3.60
2022-12-07T06:38:35.848Z,2.90
2022-12-07T06:41:02.523Z,2.85
2022-12-07T06:43:29.316Z,3.50
2022-12-07T06:45:56.043Z,3.05
2022-12-07T06:48:22.732Z,2.47
2022-12-07T06:50:54.440Z,2.60
2022-12-07T06:53:22.152Z,2.92
2022-12-07T06:55:48.833Z,2.35
2022-12-07T06:58:15.500Z,2.53
2022-12-07T07:00:42.197Z,2.40
2022-12-07T07:03:08.881Z,2.17
2022-12-07T07:05:35.841Z,2.88
2022-12-07T07:08:21.965Z,2.42
2022-12-07T07:10:49.253Z,3.80
2022-12-07T07:13:15.924Z,2.90
2022-12-07T07:15:42.996Z,4.07
2022-12-07T07:18:09.671Z,3.60
2022-12-07T07:20:36.345Z,4.18
2022-12-07T07:23:03.024Z,3.10
2022-12-07T07:25:29.758Z,2.40
2022-12-07T07:27:56.517Z,2.72
2022-12-07T07:30:23.307Z,3.28
2022-12-07T07:32:50.049Z,2.63
2022-12-07T07:35:16.915Z,3.50
2022-12-07T07:37:43.787Z,3.58
2022-12-07T07:40:11.113Z,3.42
2022-12-07T07:42:37.866Z,3.47
2022-12-07T07:45:05.570Z,3.90
2022-12-07T07:47:32.412Z,4.32
2022-12-07T07:49:59.253Z,3.95
2022-12-07T07:52:26.125Z,4.15
2022-12-07T07:54:52.849Z,3.42
2022-12-07T07:57:19.616Z,2.90
2022-12-07T07:59:46.363Z,3.53
2022-12-07T08:02:17.417Z,2.85
2022-12-07T08:04:44.753Z,3.53
2022-12-07T08:07:12.748Z,2.83
2022-12-07T08:09:39.634Z,2.88
2022-12-07T08:12:06.607Z,2.00
2022-12-07T08:14:33.495Z,2.58
2022-12-07T08:17:00.583Z,2.10
2022-12-07T08:19:27.474Z,1.73
2022-12-07T08:21:54.249Z,2.22
2022-12-07T08:24:21.030Z,2.53
2022-12-07T08:26:47.890Z,2.28
2022-12-07T08:29:14.569Z,2.85
2022-12-07T08:31:41.328Z,3.58
2022-12-07T08:34:08.117Z,2.60
2022-12-07T08:36:34.799Z,2.58
2022-12-07T08:39:30.264Z,2.70
2022-12-07T08:41:48.714Z,3.17
2022-12-07T08:44:15.731Z,3.97
2022-12-07T08:46:57.385Z,3.47
2022-12-07T08:49:29.067Z,3.58
2022-12-07T08:51:56.346Z,2.95
2022-12-07T08:54:23.177Z,3.17
2022-12-07T08:56:52.999Z,3.50
2022-12-07T08:59:23.720Z,4.13
2022-12-07T09:01:50.528Z,3.63
2022-12-07T09:04:17.261Z,3.25
2022-12-07T09:06:44.196Z,3.20
2022-12-07T09:09:11.064Z,3.20
2022-12-07T09:11:37.801Z,2.97
2022-12-07T09:14:04.555Z,4.18
2022-12-07T09:16:31.374Z,3.78
2022-12-07T09:18:58.166Z,3.42
2022-12-07T09:21:24.834Z,4.18
2022-12-07T09:23:51.527Z,3.78
2022-12-07T09:26:18.206Z,4.55
2022-12-07T09:28:44.919Z,3.50
2022-12-07T09:31:27.095Z,3.80
2022-12-07T09:34:04.047Z,4.03
2022-12-07T09:36:30.772Z,3.70
2022-12-07T09:38:57.453Z,3.33
2022-12-07T09:41:24.824Z,3.30
2022-12-07T09:43:51.749Z,4.10
2022-12-07T09:46:20.022Z,5.18
2022-12-07T09:48:47.039Z,4.07
2022-12-07T09:51:23.322Z,3.70
2022-12-07T09:53:52.107Z,3.70
2022-12-07T09:56:19.226Z,3.40
2022-12-07T09:58:46.105Z,4.47
2022-12-07T10:01:14.836Z,3.17
2022-12-07T10:03:48.593Z,3.38
2022-12-07T10:06:15.273Z,3.35
2022-12-07T10:08:44.226Z,3.65
2022-12-07T10:11:11.952Z,3.38
2022-12-07T10:13:39.493Z,2.78
2022-12-07T10:16:07.523Z,2.63
2022-12-07T10:18:39.674Z,2.58
2022-12-07T10:21:09.961Z,2.50
2022-12-07T10:23:37.683Z,2.30
2022-12-07T10:26:41.586Z,2.42
2022-12-07T10:29:17.300Z,2.75
2022-12-07T10:31:44.562Z,2.33
2022-12-07T10:34:39.559Z,2.22
2022-12-07T10:37:17.405Z,1.80
2022-12-07T10:39:53.527Z,2.00
2022-12-07T10:42:21.782Z,2.17
2022-12-07T10:44:49.506Z,2.88
2022-12-07T10:47:51.521Z,2.53
2022-12-07T10:50:59.732Z,2.65
2022-12-07T10:53:35.688Z,3.30
2022-12-07T10:56:21.834Z,3.20
2022-12-07T10:59:05.440Z,3.25
2022-12-07T11:01:51.135Z,3.10
2022-12-07T11:04:51.632Z,2.75
2022-12-07T11:07:30.161Z,2.67
2022-12-07T11:10:10.648Z,3.35
2022-12-07T11:13:03.949Z,2.75
2022-12-07T11:15:41.219Z,4.47
2022-12-07T11:18:51.351Z,3.55
2022-12-07T11:21:28.208Z,3.13
2022-12-07T11:24:30.250Z,3.70
2022-12-07T11:27:11.142Z,3.72
2022-12-07T11:30:01.876Z,3.85
2022-12-07T11:32:43.810Z,3.60
2022-12-07T11:35:45.477Z,2.90
2022-12-07T11:38:24.664Z,2.72
2022-12-07T11:40:57.215Z,3.20
2022-12-07T11:43:33.134Z,3.55
2022-12-07T11:46:11.832Z,3.95
2022-12-07T11:48:41.629Z,3.47
2022-12-07T11:51:09.988Z,3.53
2022-12-07T11:53:38.871Z,4.75
2022-12-07T11:56:20.527Z,3.58
2022-12-07T11:59:01.726Z,4.07
2022-12-07T12:01:46.587Z,3.50
2022-12-07T12:04:28.834Z,4.03
2022-12-07T12:06:56.433Z,4.35
2022-12-07T12:09:44.725Z,3.35
2022-12-07T12:15:42.693Z,3.05
2022-12-07T12:18:42.350Z,2.67
2022-12-07T12:21:10.747Z,3.17
2022-12-07T12:23:52.735Z,3.60
2022-12-07T12:26:21.263Z,3.67
2022-12-07T12:29:16.689Z,3.55
2022-12-07T12:31:43.634Z,3.00
2022-12-07T12:34:30.632Z,2.90
2022-12-07T12:36:57.322Z,2.90
2022-12-07T12:39:24.364Z,3.58
2022-12-07T12:41:51.025Z,3.08
2022-12-07T12:44:19.155Z,3.58
2022-12-07T12:46:58.350Z,3.33
2022-12-07T12:49:26.004Z,3.58
2022-12-07T12:51:59.852Z,3.45
2022-12-07T12:54:33.977Z,3.20
2022-12-07T12:57:31.479Z,2.65
2022-12-07T12:59:59.662Z,3.30
2022-12-07T13:02:29.519Z,3.10
2022-12-07T13:05:03.304Z,2.65
2022-12-07T13:07:46.022Z,2.90
2022-12-07T13:10:24.847Z,2.80
2022-12-07T13:12:58.060Z,2.35
2022-12-07T13:15:40.772Z,2.72
2022-12-07T13:18:29.241Z,3.13
2022-12-07T13:21:00.088Z,2.60
2022-12-07T13:23:31.044Z,2.92
2022-12-07T13:26:17.933Z,2.60
2022-12-07T13:28:52.927Z,2.60
2022-12-07T13:31:39.718Z,2.20
2022-12-07T13:34:26.937Z,2.25
2022-12-07T13:36:53.580Z,2.10
2022-12-07T13:39:23.648Z,2.60
2022-12-07T13:41:52.624Z,2.20
2022-12-07T13:44:19.912Z,2.67
2022-12-07T13:47:00.972Z,2.97
2022-12-07T13:49:33.087Z,2.50
2022-12-07T13:52:14.984Z,2.78
2022-12-07T13:54:49.668Z,2.47
2022-12-07T13:57:17.628Z,2.35
2022-12-07T13:59:44.389Z,2.25
2022-12-07T14:02:35.105Z,2.03
2022-12-07T14:05:16.251Z,2.63
2022-12-07T14:07:59.701Z,2.67
2022-12-07T14:10:33.163Z,2.25
2022-12-07T14:15:34.325Z,1.83
2022-12-07T14:18:04.539Z,2.00
2022-12-07T14:20:35.123Z,1.80
2022-12-07T14:23:09.868Z,2.40
2022-12-07T14:25:50.732Z,2.13
2022-12-07T14:28:37.399Z,2.00
2022-12-07T14:31:04.282Z,2.55
2022-12-07T14:33:31.031Z,2.75
2022-12-07T14:35:59.100Z,2.38
2022-12-07T14:38:27.122Z,2.50
2022-12-07T14:40:54.315Z,2.97
2022-12-07T14:43:21.183Z,2.33
2022-12-07T14:45:47.901Z,1.88
2022-12-07T14:53:55.219Z,1.95
2022-12-07T14:56:24.881Z,1.45
2022-12-07T14:58:51.538Z,2.55
2022-12-07T15:01:18.225Z,2.13
2022-12-07T15:03:45.006Z,2.00
2022-12-07T15:06:14.123Z,1.92
2022-12-07T15:08:40.799Z,3.08
2022-12-07T15:11:07.525Z,2.30
2022-12-07T15:13:53.055Z,2.50
2022-12-07T15:16:20.768Z,2.50
2022-12-07T15:19:04.961Z,2.10
2022-12-07T15:21:34.233Z,2.60
2022-12-07T15:24:00.882Z,1.95
2022-12-07T15:26:27.625Z,2.00
2022-12-07T15:28:55.154Z,1.80
2022-12-07T15:31:53.786Z,1.70
2022-12-07T15:34:08.534Z,1.92
2022-12-07T15:36:35.702Z,1.88
2022-12-07T15:39:17.885Z,1.52
2022-12-07T15:41:44.591Z,1.25
2022-12-07T15:44:32.953Z,1.83
2022-12-07T15:46:59.722Z,1.50
2022-12-07T15:49:26.770Z,1.50
2022-12-07T15:51:53.415Z,1.05
2022-12-07T15:54:27.643Z,1.50
2022-12-07T15:56:54.667Z,1.98
2022-12-07T15:59:21.452Z,1.60
2022-12-07T16:01:48.136Z,1.10
2022-12-07T16:04:14.964Z,1.40
2022-12-07T16:06:42.157Z,1.27
2022-12-07T16:09:08.923Z,1.08
2022-12-07T16:11:35.641Z,1.40
2022-12-07T16:14:02.296Z,0.90
2022-12-07T16:16:29.284Z,1.20
2022-12-07T16:18:56.141Z,0.90
2022-12-07T16:21:25.455Z,1.00
2022-12-07T16:23:52.895Z,1.27
2022-12-07T16:26:21.034Z,1.52
2022-12-07T16:28:50.483Z,1.60
2022-12-07T16:31:18.389Z,1.60
2022-12-07T16:33:45.230Z,2.67
2022-12-07T16:36:28.870Z,2.30
2022-12-07T16:39:04.372Z,2.53
2022-12-07T16:41:31.197Z,2.28
2022-12-07T16:43:57.890Z,2.28
2022-12-07T16:46:24.700Z,2.58
2022-12-07T16:48:51.454Z,2.22
2022-12-07T16:51:18.133Z,1.88
2022-12-07T16:53:44.911Z,1.98
2022-12-07T16:56:15.812Z,1.92
2022-12-07T16:58:43.370Z,1.85
2022-12-07T17:01:13.495Z,1.67
2022-12-07T17:03:40.524Z,1.70
2022-12-07T17:06:17.276Z,1.70
2022-12-07T17:08:43.977Z,1.70
2022-12-07T17:11:14.320Z,1.80
2022-12-07T17:14:00.016Z,1.77
2022-12-07T17:16:26.870Z,1.80
2022-12-07T17:18:53.697Z,1.50
2022-12-07T17:21:20.441Z,1.70
2022-12-07T17:23:47.282Z,1.50
2022-12-07T17:26:16.110Z,1.73
2022-12-07T17:28:42.927Z,2.00
2022-12-07T17:31:11.143Z,1.73
2022-12-07T17:33:37.830Z,1.60
2022-12-07T17:36:31.363Z,2.15
2022-12-07T17:38:58.508Z,1.80
2022-12-07T17:41:45.191Z,2.78
2022-12-07T17:44:13.549Z,2.15
2022-12-07T17:46:40.430Z,2.28
2022-12-07T17:49:07.567Z,2.50
2022-12-07T17:51:52.923Z,1.77
2022-12-07T17:54:19.759Z,2.45
2022-12-07T17:56:46.552Z,1.90
2022-12-07T17:59:13.319Z,1.83
2022-12-07T18:01:40.291Z,1.85
2022-12-07T18:04:07.394Z,1.58
2022-12-07T18:06:34.230Z,1.70
2022-12-07T18:09:00.971Z,2.10
2022-12-07T18:11:27.678Z,1.90
2022-12-07T18:13:54.422Z,2.15
2022-12-07T18:16:23.978Z,2.00
2022-12-07T18:18:53.818Z,1.95
2022-12-07T18:21:23.575Z,2.00
2022-12-07T18:23:51.953Z,2.10
2022-12-07T18:26:18.873Z,2.40
2022-12-07T18:28:45.790Z,2.00
2022-12-07T18:31:16.248Z,1.85
2022-12-07T18:33:43.882Z,1.55
2022-12-07T18:36:11.106Z,1.63
2022-12-07T18:38:37.992Z,1.67
2022-12-07T18:41:06.966Z,1.88
2022-12-07T18:43:33.885Z,1.63
2022-12-07T18:46:00.667Z,1.63
2022-12-07T18:48:27.391Z,1.83
2022-12-07T18:51:04.844Z,1.48
2022-12-07T18:53:31.903Z,1.60
2022-12-07T18:56:05.842Z,1.60
2022-12-07T18:58:32.566Z,1.42
2022-12-07T19:00:59.481Z,1.45
2022-12-07T19:03:31.414Z,1.30
2022-12-07T19:05:59.911Z,1.60
2022-12-07T19:08:26.774Z,1.38
2022-12-07T19:10:53.537Z,1.50
2022-12-07T19:13:20.293Z,1.50
2022-12-07T19:15:47.249Z,1.70
2022-12-07T19:18:13.948Z,1.58
2022-12-07T19:20:41.295Z,2.15
2022-12-07T19:23:07.985Z,1.63
2022-12-07T19:25:34.654Z,1.52
2022-12-07T19:28:01.387Z,1.58
2022-12-07T19:30:28.137Z,1.70
2022-12-07T19:32:54.907Z,1.90
2022-12-07T19:35:21.756Z,1.70
2022-12-07T19:37:48.494Z,1.73
2022-12-07T19:40:15.285Z,1.60
2022-12-07T19:42:41.955Z,1.60
2022-12-07T19:45:08.841Z,2.85
2022-12-07T19:47:35.599Z,2.20
2022-12-07T19:50:02.274Z,1.75
2022-12-07T19:52:32.152Z,1.85
2022-12-07T19:55:03.289Z,2.33
2022-12-07T19:57:30.214Z,1.92
2022-12-07T19:59:56.983Z,1.98
2022-12-07T20:02:23.844Z,1.90
2022-12-07T20:04:50.581Z,2.05
2022-12-07T20:07:17.241Z,1.60
2022-12-07T20:09:43.926Z,2.05
2022-12-07T20:12:29.525Z,1.55
2022-12-07T20:14:56.450Z,2.10
2022-12-07T20:17:23.254Z,2.03
2022-12-07T20:19:49.978Z,1.60
2022-12-07T20:22:16.826Z,1.60
2022-12-07T20:24:43.561Z,1.48
2022-12-07T20:27:10.297Z,1.58
2022-12-07T20:29:37.041Z,1.73
2022-12-07T20:32:04.398Z,2.00
2022-12-07T20:34:31.091Z,1.95
2022-12-07T20:36:57.950Z,2.28
2022-12-07T20:39:24.688Z,2.15
2022-12-07T20:42:09.996Z,2.10
2022-12-07T20:44:36.829Z,2.63
2022-12-07T20:47:04.873Z,2.10
2022-12-07T20:49:31.740Z,2.65
2022-12-07T20:51:58.400Z,2.70
2022-12-07T20:54:25.256Z,2.60
2022-12-07T20:56:52.030Z,3.30
2022-12-07T20:59:18.969Z,2.75
2022-12-07T21:01:45.797Z,1.98
2022-12-07T21:04:13.445Z,2.15
2022-12-07T21:06:40.285Z,2.10
2022-12-07T21:09:07.073Z,1.85
2022-12-07T21:11:33.801Z,1.70
2022-12-07T21:14:00.481Z,2.15
2022-12-07T21:16:28.937Z,2.15
2022-12-07T21:18:56.960Z,2.47
2022-12-07T21:21:23.808Z,2.20
2022-12-07T21:23:55.493Z,1.80
2022-12-07T21:26:26.199Z,1.70
2022-12-07T21:28:53.030Z,2.15
2022-12-07T21:31:19.874Z,2.20
2022-12-07T21:33:46.692Z,1.98
2022-12-07T21:36:14.769Z,2.03
2022-12-07T21:38:41.544Z,2.63
2022-12-07T21:41:24.880Z,2.25
2022-12-07T21:43:51.647Z,2.10
2022-12-07T21:46:18.773Z,1.98
2022-12-07T21:48:52.517Z,1.95
2022-12-07T21:51:21.048Z,2.00
2022-12-07T21:53:48.247Z,2.05
2022-12-07T21:56:31.856Z,2.03
2022-12-07T21:59:04.189Z,1.40
2022-12-07T22:01:35.593Z,1.88
2022-12-07T22:04:02.393Z,1.77
2022-12-07T22:06:29.177Z,1.88
2022-12-07T22:08:55.964Z,1.77
2022-12-07T22:11:22.667Z,2.03
2022-12-07T22:14:10.653Z,3.05
2022-12-07T22:16:38.465Z,1.55
2022-12-07T22:19:08.427Z,2.05
2022-12-07T22:21:35.469Z,2.05
2022-12-07T22:24:03.042Z,2.03
2022-12-07T22:26:29.714Z,2.40
2022-12-07T22:28:56.345Z,2.10
2022-12-07T22:31:23.572Z,2.30
2022-12-07T22:33:50.498Z,2.47
2022-12-07T22:36:17.346Z,2.50
2022-12-07T22:38:44.156Z,1.90
2022-12-07T22:41:20.017Z,2.40
2022-12-07T22:43:46.781Z,2.13
2022-12-07T22:46:13.521Z,1.63
2022-12-07T22:48:40.279Z,2.10
2022-12-07T22:51:07.023Z,2.15
2022-12-07T22:53:33.824Z,1.77
2022-12-07T22:56:00.464Z,2.40
2022-12-07T22:58:27.121Z,1.90
2022-12-07T23:00:53.942Z,2.50
2022-12-07T23:03:20.751Z,2.55
2022-12-07T23:05:48.994Z,2.45
2022-12-07T23:08:15.883Z,2.13
2022-12-07T23:10:44.009Z,2.30
2022-12-07T23:13:32.723Z,2.03
2022-12-07T23:16:09.955Z,2.03
2022-12-07T23:18:37.230Z,1.70
2022-12-07T23:21:04.114Z,1.70
2022-12-07T23:23:30.918Z,1.88
2022-12-07T23:26:05.436Z,2.08
2022-12-07T23:28:32.682Z,2.42
2022-12-07T23:31:13.468Z,2.10
2022-12-07T23:33:40.648Z,2.35
2022-12-07T23:36:14.631Z,1.63
2022-12-07T23:38:41.945Z,1.70
2022-12-07T23:41:10.278Z,1.80
2022-12-07T23:43:37.251Z,2.30
2022-12-07T23:46:07.135Z,3.10
2022-12-07T23:48:35.082Z,2.50
2022-12-07T23:51:01.757Z,2.58
2022-12-07T23:53:29.538Z,3.45
2022-12-07T23:55:56.575Z,3.53
2022-12-07T23:58:23.446Z,2.38
